RYR8593 LICR-LIPE
Flight info
| Callsign | RYR8593 |
|---|---|
| Flight time | 1h 13m |
| Altitude | 38000 |
| Route | PAZZE Z854 BAGIX DCT TEA DCT ALAXI DCT AMTEL DCT LOMED |
| Aircraft | B738/M-SDE3FGILRWY/SB1 |
Departure
| Time | 2026-04-25 12:42 |
|---|---|
| Airport | Reggio Calabria Airport (LICR) |
Arrival
| Time | 2026-04-25 13:56 |
|---|---|
| Airport | Bologna Guglielmo Marconi Airport (LIPE) |
| Time | Latitude | Longitude | Altitude | Speed | Heading |
|---|---|---|---|---|---|
| 2026-04-25 12:00 | 38.07308 | 15.65337 | 48 ft | 0 kts | 116° |
| 2026-04-25 12:34 | 38.07308 | 15.65338 | 48 ft | 0 kts | 118° |
| 2026-04-25 12:35 | 38.07297 | 15.65333 | 47 ft | 2 kts | 234° |
| 2026-04-25 12:35 | 38.07303 | 15.65290 | 45 ft | 7 kts | 300° |
| 2026-04-25 12:35 | 38.07338 | 15.65246 | 48 ft | 7 kts | 299° |
| 2026-04-25 12:35 | 38.07329 | 15.65201 | 46 ft | 5 kts | 244° |
| 2026-04-25 12:36 | 38.07315 | 15.65165 | 46 ft | 4 kts | 242° |
| 2026-04-25 12:36 | 38.07314 | 15.65163 | 46 ft | 0 kts | 242° |
| 2026-04-25 12:38 | 38.07304 | 15.65139 | 46 ft | 8 kts | 242° |
| 2026-04-25 12:38 | 38.07240 | 15.65084 | 45 ft | 15 kts | 165° |
| 2026-04-25 12:39 | 38.07120 | 15.65160 | 41 ft | 24 kts | 153° |
| 2026-04-25 12:39 | 38.06967 | 15.65259 | 36 ft | 20 kts | 153° |
| 2026-04-25 12:39 | 38.06845 | 15.65339 | 34 ft | 19 kts | 153° |
| 2026-04-25 12:39 | 38.06740 | 15.65407 | 32 ft | 14 kts | 153° |
| 2026-04-25 12:40 | 38.06655 | 15.65461 | 32 ft | 11 kts | 153° |
| 2026-04-25 12:40 | 38.06590 | 15.65509 | 32 ft | 11 kts | 155° |
| 2026-04-25 12:40 | 38.06526 | 15.65554 | 32 ft | 10 kts | 133° |
| 2026-04-25 12:40 | 38.06495 | 15.65628 | 32 ft | 8 kts | 121° |
| 2026-04-25 12:41 | 38.06450 | 15.65643 | 33 ft | 8 kts | 216° |
| 2026-04-25 12:41 | 38.06457 | 15.65589 | 32 ft | 9 kts | 326° |
| 2026-04-25 12:41 | 38.06649 | 15.65464 | 32 ft | 64 kts | 332° |
| 2026-04-25 12:41 | 38.07242 | 15.65079 | 45 ft | 124 kts | 333° |
| 2026-04-25 12:42 | 38.08120 | 15.64506 | 316 ft | 149 kts | 334° |
| 2026-04-25 12:42 | 38.08427 | 15.64305 | 617 ft | 144 kts | 333° |
| 2026-04-25 12:42 | 38.10053 | 15.63464 | 1667 ft | 164 kts | 338° |
| 2026-04-25 12:42 | 38.11221 | 15.62887 | 1934 ft | 193 kts | 338° |
| 2026-04-25 12:43 | 38.12504 | 15.62245 | 2375 ft | 205 kts | 338° |
| 2026-04-25 12:43 | 38.13853 | 15.61568 | 2882 ft | 211 kts | 338° |
| 2026-04-25 12:43 | 38.16760 | 15.60663 | 3931 ft | 232 kts | 352° |
| 2026-04-25 12:44 | 38.18438 | 15.60349 | 4204 ft | 254 kts | 352° |
| 2026-04-25 12:44 | 38.20226 | 15.60002 | 4793 ft | 261 kts | 352° |
| 2026-04-25 12:44 | 38.23863 | 15.59267 | 6213 ft | 268 kts | 351° |
| 2026-04-25 12:45 | 38.25735 | 15.58881 | 6914 ft | 273 kts | 351° |
| 2026-04-25 12:45 | 38.27607 | 15.58491 | 7721 ft | 273 kts | 351° |
| 2026-04-25 12:45 | 38.31415 | 15.57694 | 9217 ft | 281 kts | 351° |
| 2026-04-25 12:46 | 38.33354 | 15.57287 | 10015 ft | 284 kts | 351° |
| 2026-04-25 12:46 | 38.35302 | 15.56878 | 10555 ft | 296 kts | 351° |
| 2026-04-25 12:46 | 38.37418 | 15.56435 | 10725 ft | 320 kts | 351° |
| 2026-04-25 12:46 | 38.39687 | 15.55959 | 11037 ft | 337 kts | 351° |
| 2026-04-25 12:47 | 38.42031 | 15.55465 | 11636 ft | 344 kts | 351° |
| 2026-04-25 12:47 | 38.44408 | 15.54964 | 12385 ft | 347 kts | 352° |
| 2026-04-25 12:47 | 38.46798 | 15.54460 | 13146 ft | 350 kts | 352° |
| 2026-04-25 12:47 | 38.49226 | 15.53948 | 13886 ft | 354 kts | 352° |
| 2026-04-25 12:48 | 38.51647 | 15.53437 | 14564 ft | 358 kts | 352° |
| 2026-04-25 12:48 | 38.54120 | 15.52915 | 15284 ft | 361 kts | 352° |
| 2026-04-25 12:48 | 38.56626 | 15.52387 | 15965 ft | 366 kts | 352° |
| 2026-04-25 12:48 | 38.59160 | 15.51952 | 16685 ft | 368 kts | 356° |
| 2026-04-25 12:49 | 38.61729 | 15.51729 | 17417 ft | 371 kts | 358° |
| 2026-04-25 12:49 | 38.64324 | 15.51575 | 18103 ft | 375 kts | 359° |
| 2026-04-25 12:49 | 38.66912 | 15.51431 | 18729 ft | 379 kts | 359° |
| 2026-04-25 12:49 | 38.69561 | 15.51270 | 19339 ft | 382 kts | 359° |
| 2026-04-25 12:50 | 38.72232 | 15.51094 | 19947 ft | 385 kts | 358° |
| 2026-04-25 12:50 | 38.74921 | 15.50905 | 20550 ft | 388 kts | 358° |
| 2026-04-25 12:50 | 38.77634 | 15.50708 | 21132 ft | 392 kts | 358° |
| 2026-04-25 12:50 | 38.80374 | 15.50505 | 21701 ft | 395 kts | 358° |
| 2026-04-25 12:51 | 38.83133 | 15.50299 | 22275 ft | 399 kts | 358° |
| 2026-04-25 12:51 | 38.85922 | 15.50090 | 22840 ft | 402 kts | 358° |
| 2026-04-25 12:51 | 38.88694 | 15.49883 | 23385 ft | 405 kts | 358° |
| 2026-04-25 12:51 | 38.91520 | 15.49672 | 23890 ft | 408 kts | 358° |
| 2026-04-25 12:52 | 38.94376 | 15.49459 | 24343 ft | 411 kts | 358° |
| 2026-04-25 12:52 | 38.97244 | 15.49169 | 24792 ft | 415 kts | 353° |
| 2026-04-25 12:52 | 39.00075 | 15.48328 | 25234 ft | 420 kts | 344° |
| 2026-04-25 12:52 | 39.02765 | 15.46904 | 25634 ft | 425 kts | 336° |
| 2026-04-25 12:53 | 39.05431 | 15.45211 | 26063 ft | 428 kts | 335° |
| 2026-04-25 12:53 | 39.08109 | 15.43470 | 26478 ft | 431 kts | 335° |
| 2026-04-25 12:53 | 39.10797 | 15.41714 | 26880 ft | 434 kts | 335° |
| 2026-04-25 12:53 | 39.13503 | 15.39954 | 27284 ft | 437 kts | 335° |
| 2026-04-25 12:54 | 39.16203 | 15.38208 | 27667 ft | 439 kts | 335° |
| 2026-04-25 12:54 | 39.18954 | 15.36438 | 28052 ft | 442 kts | 335° |
| 2026-04-25 12:54 | 39.21715 | 15.34667 | 28434 ft | 445 kts | 335° |
| 2026-04-25 12:54 | 39.24506 | 15.32880 | 28782 ft | 448 kts | 335° |
| 2026-04-25 12:55 | 39.27320 | 15.31079 | 29115 ft | 451 kts | 335° |
| 2026-04-25 12:55 | 39.28232 | 15.30495 | 29218 ft | 452 kts | 335° |
| 2026-04-25 12:55 | 39.32948 | 15.27473 | 29788 ft | 457 kts | 335° |
| 2026-04-25 12:55 | 39.35810 | 15.25637 | 30110 ft | 459 kts | 335° |
| 2026-04-25 12:56 | 39.37715 | 15.24414 | 30299 ft | 461 kts | 335° |
| 2026-04-25 12:56 | 39.41536 | 15.21957 | 30674 ft | 464 kts | 335° |
| 2026-04-25 12:56 | 39.44434 | 15.20091 | 30997 ft | 464 kts | 335° |
| 2026-04-25 12:56 | 39.46356 | 15.18853 | 31261 ft | 463 kts | 335° |
| 2026-04-25 12:57 | 39.49238 | 15.16994 | 31675 ft | 462 kts | 335° |
| 2026-04-25 12:57 | 39.52113 | 15.15138 | 32043 ft | 461 kts | 335° |
| 2026-04-25 12:57 | 39.54986 | 15.13282 | 32395 ft | 461 kts | 335° |
| 2026-04-25 12:57 | 39.57853 | 15.11429 | 32771 ft | 460 kts | 335° |
| 2026-04-25 12:58 | 39.60724 | 15.09571 | 33161 ft | 459 kts | 335° |
| 2026-04-25 12:58 | 39.63580 | 15.07722 | 33533 ft | 458 kts | 335° |
| 2026-04-25 12:58 | 39.66441 | 15.05867 | 33884 ft | 458 kts | 335° |
| 2026-04-25 12:58 | 39.69255 | 15.04041 | 34216 ft | 457 kts | 335° |
| 2026-04-25 12:59 | 39.72107 | 15.02188 | 34534 ft | 456 kts | 335° |
| 2026-04-25 12:59 | 39.74937 | 15.00349 | 34860 ft | 455 kts | 335° |
| 2026-04-25 12:59 | 39.77777 | 14.98501 | 35166 ft | 454 kts | 335° |
| 2026-04-25 12:59 | 39.80603 | 14.96660 | 35454 ft | 454 kts | 335° |
| 2026-04-25 13:00 | 39.83390 | 14.94844 | 35750 ft | 453 kts | 335° |
| 2026-04-25 13:00 | 39.85299 | 14.93599 | 35950 ft | 452 kts | 335° |
| 2026-04-25 13:00 | 39.89021 | 14.91169 | 36325 ft | 451 kts | 334° |
| 2026-04-25 13:00 | 39.91829 | 14.89333 | 36590 ft | 451 kts | 334° |
| 2026-04-25 13:01 | 39.94630 | 14.87500 | 36879 ft | 450 kts | 334° |
| 2026-04-25 13:01 | 39.97437 | 14.85662 | 37109 ft | 450 kts | 334° |
| 2026-04-25 13:01 | 40.00209 | 14.83845 | 37347 ft | 450 kts | 334° |
| 2026-04-25 13:01 | 40.03004 | 14.82011 | 37649 ft | 449 kts | 334° |
| 2026-04-25 13:02 | 40.05788 | 14.80183 | 37945 ft | 447 kts | 334° |
| 2026-04-25 13:02 | 40.08571 | 14.78354 | 38118 ft | 448 kts | 334° |
| 2026-04-25 13:02 | 40.14166 | 14.74672 | 38102 ft | 450 kts | 334° |
| 2026-04-25 13:03 | 40.19744 | 14.70993 | 38088 ft | 446 kts | 334° |
| 2026-04-25 13:03 | 40.25249 | 14.67355 | 38097 ft | 443 kts | 334° |
| 2026-04-25 13:04 | 40.30748 | 14.63716 | 38109 ft | 443 kts | 334° |
| 2026-04-25 13:04 | 40.36299 | 14.60037 | 38116 ft | 450 kts | 334° |
| 2026-04-25 13:05 | 40.41887 | 14.56325 | 38104 ft | 454 kts | 334° |
| 2026-04-25 13:05 | 40.47539 | 14.52563 | 38102 ft | 456 kts | 334° |
| 2026-04-25 13:06 | 40.53223 | 14.48773 | 38094 ft | 457 kts | 334° |
| 2026-04-25 13:06 | 40.58856 | 14.45009 | 38093 ft | 456 kts | 334° |
| 2026-04-25 13:07 | 40.64521 | 14.41216 | 38092 ft | 455 kts | 334° |
| 2026-04-25 13:07 | 40.70147 | 14.37443 | 38083 ft | 453 kts | 334° |
| 2026-04-25 13:08 | 40.75753 | 14.33676 | 38088 ft | 451 kts | 334° |
| 2026-04-25 13:08 | 40.81306 | 14.29938 | 38102 ft | 449 kts | 334° |
| 2026-04-25 13:09 | 40.86866 | 14.26188 | 38105 ft | 448 kts | 334° |
| 2026-04-25 13:09 | 40.92413 | 14.22439 | 38095 ft | 447 kts | 335° |
| 2026-04-25 13:10 | 40.97966 | 14.18680 | 38106 ft | 447 kts | 334° |
| 2026-04-25 13:10 | 41.03486 | 14.14935 | 38104 ft | 448 kts | 334° |
| 2026-04-25 13:11 | 41.09059 | 14.11147 | 38102 ft | 450 kts | 334° |
| 2026-04-25 13:11 | 41.14612 | 14.07366 | 38112 ft | 451 kts | 334° |
| 2026-04-25 13:12 | 41.20218 | 14.03540 | 38084 ft | 453 kts | 334° |
| 2026-04-25 13:12 | 41.24910 | 14.00333 | 38079 ft | 454 kts | 334° |
| 2026-04-25 13:13 | 41.31134 | 13.95147 | 38073 ft | 457 kts | 318° |
| 2026-04-25 13:13 | 41.35545 | 13.89023 | 38070 ft | 458 kts | 313° |
| 2026-04-25 13:14 | 41.39860 | 13.82772 | 38069 ft | 457 kts | 313° |
| 2026-04-25 13:14 | 41.44165 | 13.76610 | 38073 ft | 456 kts | 314° |
| 2026-04-25 13:15 | 41.48506 | 13.70443 | 38066 ft | 455 kts | 314° |
| 2026-04-25 13:15 | 41.52835 | 13.64294 | 38073 ft | 453 kts | 314° |
| 2026-04-25 13:16 | 41.57126 | 13.58182 | 38074 ft | 452 kts | 314° |
| 2026-04-25 13:16 | 41.61409 | 13.52067 | 38058 ft | 452 kts | 314° |
| 2026-04-25 13:17 | 41.65709 | 13.45915 | 38074 ft | 451 kts | 314° |
| 2026-04-25 13:17 | 41.69998 | 13.39765 | 38072 ft | 452 kts | 314° |
| 2026-04-25 13:18 | 41.74315 | 13.33679 | 38065 ft | 452 kts | 318° |
| 2026-04-25 13:18 | 41.79070 | 13.28158 | 38059 ft | 452 kts | 321° |
| 2026-04-25 13:19 | 41.83921 | 13.22795 | 38063 ft | 453 kts | 321° |
| 2026-04-25 13:19 | 41.87978 | 13.18258 | 38071 ft | 453 kts | 320° |
| 2026-04-25 13:20 | 41.93583 | 13.11895 | 38070 ft | 453 kts | 320° |
| 2026-04-25 13:20 | 41.98395 | 13.06387 | 38057 ft | 453 kts | 321° |
| 2026-04-25 13:21 | 42.03160 | 13.00919 | 38082 ft | 453 kts | 320° |
| 2026-04-25 13:21 | 42.07957 | 12.95406 | 38055 ft | 454 kts | 320° |
| 2026-04-25 13:22 | 42.12760 | 12.89877 | 38072 ft | 453 kts | 320° |
| 2026-04-25 13:23 | 42.19953 | 12.81573 | 38062 ft | 453 kts | 320° |
| 2026-04-25 13:23 | 42.24705 | 12.76073 | 38069 ft | 453 kts | 320° |
| 2026-04-25 13:24 | 42.29490 | 12.70523 | 38069 ft | 452 kts | 320° |
| 2026-04-25 13:24 | 42.34264 | 12.64976 | 38073 ft | 451 kts | 320° |
| 2026-04-25 13:25 | 42.38999 | 12.59461 | 38065 ft | 451 kts | 320° |
| 2026-04-25 13:25 | 42.43762 | 12.53904 | 38071 ft | 450 kts | 320° |
| 2026-04-25 13:26 | 42.48471 | 12.48396 | 38060 ft | 450 kts | 320° |
| 2026-04-25 13:26 | 42.53219 | 12.42832 | 38077 ft | 449 kts | 319° |
| 2026-04-25 13:27 | 42.57926 | 12.37305 | 38066 ft | 449 kts | 319° |
| 2026-04-25 13:27 | 42.62650 | 12.31747 | 38068 ft | 449 kts | 319° |
| 2026-04-25 13:28 | 42.67372 | 12.26179 | 38069 ft | 449 kts | 319° |
| 2026-04-25 13:28 | 42.72096 | 12.20596 | 38073 ft | 449 kts | 319° |
| 2026-04-25 13:29 | 42.76808 | 12.15016 | 38075 ft | 449 kts | 319° |
| 2026-04-25 13:29 | 42.81495 | 12.09456 | 37865 ft | 452 kts | 319° |
| 2026-04-25 13:30 | 42.86249 | 12.03802 | 36808 ft | 451 kts | 318° |
| 2026-04-25 13:30 | 42.88611 | 12.00989 | 36249 ft | 450 kts | 318° |
| 2026-04-25 13:30 | 42.90937 | 11.98216 | 35656 ft | 450 kts | 318° |
| 2026-04-25 13:31 | 42.95658 | 11.92577 | 34585 ft | 447 kts | 318° |
| 2026-04-25 13:31 | 42.97998 | 11.89779 | 34139 ft | 445 kts | 318° |
| 2026-04-25 13:31 | 43.00323 | 11.86995 | 33646 ft | 442 kts | 318° |
| 2026-04-25 13:31 | 43.02599 | 11.84268 | 33183 ft | 438 kts | 318° |
| 2026-04-25 13:32 | 43.04884 | 11.81526 | 32731 ft | 434 kts | 318° |
| 2026-04-25 13:32 | 43.07146 | 11.78810 | 32308 ft | 430 kts | 317° |
| 2026-04-25 13:32 | 43.09390 | 11.76111 | 31875 ft | 426 kts | 317° |
| 2026-04-25 13:32 | 43.11612 | 11.73438 | 31454 ft | 423 kts | 317° |
| 2026-04-25 13:33 | 43.13818 | 11.70778 | 31042 ft | 420 kts | 317° |
| 2026-04-25 13:33 | 43.15999 | 11.68148 | 30627 ft | 417 kts | 317° |
| 2026-04-25 13:33 | 43.18148 | 11.65554 | 30219 ft | 414 kts | 317° |
| 2026-04-25 13:33 | 43.18878 | 11.64673 | 30071 ft | 413 kts | 317° |
| 2026-04-25 13:34 | 43.22519 | 11.60487 | 29295 ft | 408 kts | 324° |
| 2026-04-25 13:34 | 43.24957 | 11.58535 | 28973 ft | 402 kts | 329° |
| 2026-04-25 13:34 | 43.27412 | 11.56735 | 28479 ft | 400 kts | 331° |
| 2026-04-25 13:34 | 43.29881 | 11.54951 | 27936 ft | 399 kts | 330° |
| 2026-04-25 13:35 | 43.32325 | 11.53180 | 27496 ft | 396 kts | 329° |
| 2026-04-25 13:35 | 43.34746 | 11.51415 | 27113 ft | 391 kts | 330° |
| 2026-04-25 13:35 | 43.37114 | 11.49675 | 26657 ft | 389 kts | 330° |
| 2026-04-25 13:35 | 43.39499 | 11.47913 | 26209 ft | 387 kts | 330° |
| 2026-04-25 13:36 | 43.41870 | 11.46156 | 25779 ft | 385 kts | 330° |
| 2026-04-25 13:36 | 43.44220 | 11.44409 | 25367 ft | 383 kts | 329° |
| 2026-04-25 13:36 | 43.46551 | 11.42672 | 25006 ft | 379 kts | 328° |
| 2026-04-25 13:36 | 43.48832 | 11.40971 | 24655 ft | 375 kts | 328° |
| 2026-04-25 13:37 | 43.51115 | 11.39267 | 24261 ft | 373 kts | 329° |
| 2026-04-25 13:37 | 43.53401 | 11.37559 | 23815 ft | 372 kts | 328° |
| 2026-04-25 13:37 | 43.55676 | 11.35857 | 23376 ft | 371 kts | 329° |
| 2026-04-25 13:37 | 43.57944 | 11.34158 | 22954 ft | 368 kts | 329° |
| 2026-04-25 13:38 | 43.60186 | 11.32478 | 22552 ft | 365 kts | 329° |
| 2026-04-25 13:38 | 43.62414 | 11.30809 | 22123 ft | 363 kts | 328° |
| 2026-04-25 13:38 | 43.64631 | 11.29145 | 21671 ft | 362 kts | 328° |
| 2026-04-25 13:38 | 43.66817 | 11.27503 | 21201 ft | 362 kts | 328° |
| 2026-04-25 13:39 | 43.69023 | 11.25844 | 20790 ft | 359 kts | 328° |
| 2026-04-25 13:39 | 43.71214 | 11.24196 | 20380 ft | 357 kts | 328° |
| 2026-04-25 13:39 | 43.73394 | 11.22554 | 19990 ft | 355 kts | 328° |
| 2026-04-25 13:39 | 43.75559 | 11.20923 | 19601 ft | 353 kts | 328° |
| 2026-04-25 13:40 | 43.76989 | 11.19845 | 19349 ft | 352 kts | 328° |
| 2026-04-25 13:40 | 43.79836 | 11.17696 | 18835 ft | 350 kts | 328° |
| 2026-04-25 13:40 | 43.81972 | 11.16082 | 18447 ft | 348 kts | 328° |
| 2026-04-25 13:40 | 43.84100 | 11.14473 | 18037 ft | 347 kts | 328° |
| 2026-04-25 13:41 | 43.85502 | 11.13412 | 17766 ft | 345 kts | 328° |
| 2026-04-25 13:41 | 43.88287 | 11.11303 | 17295 ft | 341 kts | 328° |
| 2026-04-25 13:41 | 43.90363 | 11.09731 | 16951 ft | 338 kts | 328° |
| 2026-04-25 13:41 | 43.91727 | 11.08695 | 16718 ft | 336 kts | 328° |
| 2026-04-25 13:42 | 43.93774 | 11.07142 | 16337 ft | 334 kts | 328° |
| 2026-04-25 13:42 | 43.95814 | 11.05590 | 15941 ft | 333 kts | 328° |
| 2026-04-25 13:42 | 43.97845 | 11.04045 | 15581 ft | 331 kts | 328° |
| 2026-04-25 13:42 | 43.99857 | 11.02517 | 15245 ft | 328 kts | 329° |
| 2026-04-25 13:43 | 44.01969 | 11.01309 | 14844 ft | 331 kts | 348° |
| 2026-04-25 13:43 | 44.04249 | 11.01290 | 14509 ft | 333 kts | 7° |
| 2026-04-25 13:43 | 44.06456 | 11.02299 | 14183 ft | 334 kts | 20° |
| 2026-04-25 13:43 | 44.08599 | 11.03534 | 13820 ft | 333 kts | 21° |
| 2026-04-25 13:44 | 44.10729 | 11.04775 | 13385 ft | 332 kts | 21° |
| 2026-04-25 13:44 | 44.12865 | 11.06001 | 13069 ft | 328 kts | 20° |
| 2026-04-25 13:44 | 44.14949 | 11.07180 | 12731 ft | 326 kts | 20° |
| 2026-04-25 13:44 | 44.17050 | 11.08363 | 12364 ft | 325 kts | 20° |
| 2026-04-25 13:45 | 44.19149 | 11.09542 | 12025 ft | 323 kts | 20° |
| 2026-04-25 13:45 | 44.21206 | 11.10698 | 11724 ft | 320 kts | 20° |
| 2026-04-25 13:45 | 44.23267 | 11.11857 | 11405 ft | 317 kts | 20° |
| 2026-04-25 13:45 | 44.25282 | 11.12992 | 11321 ft | 307 kts | 20° |
| 2026-04-25 13:46 | 44.27235 | 11.14093 | 11238 ft | 297 kts | 20° |
| 2026-04-25 13:46 | 44.29131 | 11.15162 | 11118 ft | 289 kts | 20° |
| 2026-04-25 13:46 | 44.30986 | 11.16207 | 10899 ft | 286 kts | 20° |
| 2026-04-25 13:46 | 44.32805 | 11.17234 | 10606 ft | 286 kts | 20° |
| 2026-04-25 13:47 | 44.34648 | 11.18274 | 10320 ft | 284 kts | 20° |
| 2026-04-25 13:47 | 44.36481 | 11.19313 | 10074 ft | 283 kts | 20° |
| 2026-04-25 13:47 | 44.38303 | 11.20345 | 9753 ft | 282 kts | 20° |
| 2026-04-25 13:47 | 44.40130 | 11.21379 | 9445 ft | 281 kts | 20° |
| 2026-04-25 13:48 | 44.41992 | 11.22108 | 9148 ft | 277 kts | 360° |
| 2026-04-25 13:48 | 44.43843 | 11.21586 | 8894 ft | 270 kts | 332° |
| 2026-04-25 13:48 | 44.45311 | 11.20036 | 8563 ft | 268 kts | 309° |
| 2026-04-25 13:48 | 44.46292 | 11.17835 | 8235 ft | 267 kts | 296° |
| 2026-04-25 13:49 | 44.47130 | 11.15521 | 8004 ft | 265 kts | 295° |
| 2026-04-25 13:49 | 44.47963 | 11.13221 | 7759 ft | 264 kts | 295° |
| 2026-04-25 13:49 | 44.48787 | 11.10958 | 7613 ft | 257 kts | 295° |
| 2026-04-25 13:49 | 44.49583 | 11.08736 | 7453 ft | 252 kts | 295° |
| 2026-04-25 13:50 | 44.50355 | 11.06574 | 7240 ft | 251 kts | 295° |
| 2026-04-25 13:50 | 44.51136 | 11.04389 | 6984 ft | 250 kts | 295° |
| 2026-04-25 13:50 | 44.51924 | 11.02236 | 6641 ft | 247 kts | 300° |
| 2026-04-25 13:50 | 44.53162 | 11.00582 | 6307 ft | 246 kts | 332° |
| 2026-04-25 13:51 | 44.54797 | 11.00050 | 5915 ft | 243 kts | 0° |
| 2026-04-25 13:51 | 44.56433 | 11.00651 | 5352 ft | 246 kts | 27° |
| 2026-04-25 13:51 | 44.57868 | 11.01959 | 4797 ft | 246 kts | 36° |
| 2026-04-25 13:51 | 44.59236 | 11.03381 | 4290 ft | 242 kts | 36° |
| 2026-04-25 13:52 | 44.60510 | 11.04877 | 3788 ft | 240 kts | 52° |
| 2026-04-25 13:52 | 44.61038 | 11.06947 | 3644 ft | 220 kts | 92° |
| 2026-04-25 13:52 | 44.60632 | 11.08974 | 3200 ft | 216 kts | 115° |
| 2026-04-25 13:52 | 44.60009 | 11.10875 | 2771 ft | 211 kts | 115° |
| 2026-04-25 13:53 | 44.59373 | 11.12683 | 2466 ft | 201 kts | 116° |
| 2026-04-25 13:53 | 44.58756 | 11.14387 | 2194 ft | 190 kts | 116° |
| 2026-04-25 13:53 | 44.58168 | 11.16020 | 1944 ft | 185 kts | 115° |
| 2026-04-25 13:53 | 44.57597 | 11.17604 | 1705 ft | 181 kts | 116° |
| 2026-04-25 13:54 | 44.57034 | 11.19162 | 1470 ft | 177 kts | 115° |
| 2026-04-25 13:54 | 44.56496 | 11.20656 | 1233 ft | 167 kts | 115° |
| 2026-04-25 13:54 | 44.55995 | 11.22045 | 1029 ft | 155 kts | 114° |
| 2026-04-25 13:54 | 44.55512 | 11.23398 | 825 ft | 156 kts | 115° |
| 2026-04-25 13:55 | 44.55030 | 11.24755 | 603 ft | 155 kts | 115° |
| 2026-04-25 13:55 | 44.54539 | 11.26112 | 414 ft | 157 kts | 115° |
| 2026-04-25 13:55 | 44.54046 | 11.27467 | 194 ft | 154 kts | 115° |
| 2026-04-25 13:55 | 44.53595 | 11.28727 | 127 ft | 122 kts | 117° |
| 2026-04-25 13:56 | 44.53311 | 11.29519 | 128 ft | 62 kts | 116° |
| 2026-04-25 13:56 | 44.53175 | 11.29894 | 123 ft | 15 kts | 117° |
| 2026-04-25 13:56 | 44.53091 | 11.29920 | 126 ft | 15 kts | 222° |
| 2026-04-25 13:56 | 44.53037 | 11.29805 | 124 ft | 14 kts | 240° |
| 2026-04-25 13:57 | 44.53048 | 11.29696 | 128 ft | 12 kts | 295° |
| 2026-04-25 13:57 | 44.53071 | 11.29631 | 128 ft | 9 kts | 296° |
| 2026-04-25 13:57 | 44.53066 | 11.29552 | 129 ft | 6 kts | 254° |
| 2026-04-25 13:57 | 44.53072 | 11.29491 | 130 ft | 6 kts | 293° |
| 2026-04-25 13:58 | 44.53091 | 11.29436 | 127 ft | 6 kts | 296° |
| 2026-04-25 13:58 | 44.53078 | 11.29395 | 128 ft | 5 kts | 210° |
| 2026-04-25 13:58 | 44.53060 | 11.29381 | 127 ft | 0 kts | 208° |